sensor_id;sensor_type;location;lat;lon;timestamp;pressure;altitude;pressure_sealevel;temperature;humidity
42671;BME280;28283;55.426;37.756;2022-12-18T00:03:33;98739.47;;;-4.86;91.44
42671;BME280;28283;55.426;37.756;2022-12-18T00:08:34;98722.06;;;-4.87;91.56
42671;BME280;28283;55.426;37.756;2022-12-18T00:13:35;98694.28;;;-4.90;91.72
42671;BME280;28283;55.426;37.756;2022-12-18T00:18:36;98717.63;;;-4.87;91.51
42671;BME280;28283;55.426;37.756;2022-12-18T00:23:38;98707.75;;;-4.94;92.18
42671;BME280;28283;55.426;37.756;2022-12-18T00:28:39;98681.28;;;-5.03;91.42
42671;BME280;28283;55.426;37.756;2022-12-18T00:33:40;98703.44;;;-4.95;91.50
42671;BME280;28283;55.426;37.756;2022-12-18T00:38:41;98700.81;;;-4.95;91.99
42671;BME280;28283;55.426;37.756;2022-12-18T00:43:42;98678.22;;;-5.08;92.44
42671;BME280;28283;55.426;37.756;2022-12-18T00:48:43;98667.47;;;-5.05;91.97
42671;BME280;28283;55.426;37.756;2022-12-18T00:53:43;98635.81;;;-5.13;92.17
42671;BME280;28283;55.426;37.756;2022-12-18T00:58:44;98586.00;;;-5.35;91.25
42671;BME280;28283;55.426;37.756;2022-12-18T01:03:45;98655.56;;;-4.86;91.36
42671;BME280;28283;55.426;37.756;2022-12-18T01:08:46;98635.78;;;-5.02;91.19
42671;BME280;28283;55.426;37.756;2022-12-18T01:13:47;98634.47;;;-5.07;90.40
42671;BME280;28283;55.426;37.756;2022-12-18T01:18:50;98630.88;;;-4.84;90.79
42671;BME280;28283;55.426;37.756;2022-12-18T01:23:55;98616.72;;;-5.04;90.55
42671;BME280;28283;55.426;37.756;2022-12-18T01:28:56;98588.16;;;-5.18;90.53
42671;BME280;28283;55.426;37.756;2022-12-18T01:33:59;98592.22;;;-5.25;90.68
42671;BME280;28283;55.426;37.756;2022-12-18T01:39:04;98614.34;;;-5.18;91.41
42671;BME280;28283;55.426;37.756;2022-12-18T01:49:45;98550.78;;;-5.54;91.24
42671;BME280;28283;55.426;37.756;2022-12-18T01:54:46;98607.44;;;-5.19;91.77
42671;BME280;28283;55.426;37.756;2022-12-18T01:59:52;98596.13;;;-5.20;91.16
42671;BME280;28283;55.426;37.756;2022-12-18T02:04:54;98596.03;;;-5.18;91.65
42671;BME280;28283;55.426;37.756;2022-12-18T02:10:02;98592.19;;;-5.14;91.62
42671;BME280;28283;55.426;37.756;2022-12-18T02:15:14;98585.41;;;-5.16;91.56
42671;BME280;28283;55.426;37.756;2022-12-18T02:20:38;98594.22;;;-5.18;91.25
42671;BME280;28283;55.426;37.756;2022-12-18T02:26:10;98603.66;;;-5.15;90.85
42671;BME280;28283;55.426;37.756;2022-12-18T02:31:20;98609.56;;;-5.24;90.84
42671;BME280;28283;55.426;37.756;2022-12-18T02:36:22;98581.00;;;-5.39;90.51
42671;BME280;28283;55.426;37.756;2022-12-18T02:41:24;98581.00;;;-5.39;90.98
42671;BME280;28283;55.426;37.756;2022-12-18T02:46:41;98635.31;;;-5.18;91.29
42671;BME280;28283;55.426;37.756;2022-12-18T02:51:53;98607.44;;;-5.19;90.89
42671;BME280;28283;55.426;37.756;2022-12-18T02:56:57;98608.88;;;-5.26;90.79
42671;BME280;28283;55.426;37.756;2022-12-18T03:02:21;98618.50;;;-5.15;90.73
42671;BME280;28283;55.426;37.756;2022-12-18T03:07:37;98611.84;;;-5.20;91.08
42671;BME280;28283;55.426;37.756;2022-12-18T03:12:44;98587.91;;;-5.38;90.82
42671;BME280;28283;55.426;37.756;2022-12-18T03:17:55;98595.78;;;-5.26;90.78
42671;BME280;28283;55.426;37.756;2022-12-18T03:23:04;98571.34;;;-5.15;90.30
42671;BME280;28283;55.426;37.756;2022-12-18T03:28:10;98616.00;;;-5.17;90.72
42671;BME280;28283;55.426;37.756;2022-12-18T03:38:14;98580.88;;;-5.48;90.72
42671;BME280;28283;55.426;37.756;2022-12-18T03:43:27;98619.09;;;-5.12;90.30
42671;BME280;28283;55.426;37.756;2022-12-18T03:49:01;98622.94;;;-5.16;90.05
42671;BME280;28283;55.426;37.756;2022-12-18T03:54:06;98613.41;;;-5.28;89.24
42671;BME280;28283;55.426;37.756;2022-12-18T03:59:10;98625.44;;;-5.26;89.03
42671;BME280;28283;55.426;37.756;2022-12-18T04:04:12;98610.91;;;-5.41;88.78
42671;BME280;28283;55.426;37.756;2022-12-18T04:09:14;98638.13;;;-5.44;88.48
42671;BME280;28283;55.426;37.756;2022-12-18T04:14:15;98637.44;;;-5.46;88.35
42671;BME280;28283;55.426;37.756;2022-12-18T04:19:15;98634.91;;;-5.47;88.12
42671;BME280;28283;55.426;37.756;2022-12-18T04:24:16;98668.03;;;-5.35;87.89
42671;BME280;28283;55.426;37.756;2022-12-18T04:29:17;98682.59;;;-5.31;87.56
42671;BME280;28283;55.426;37.756;2022-12-18T04:34:18;98685.44;;;-5.34;87.17
42671;BME280;28283;55.426;37.756;2022-12-18T04:39:18;98662.44;;;-5.42;87.21
42671;BME280;28283;55.426;37.756;2022-12-18T04:44:19;98684.34;;;-5.43;87.25
42671;BME280;28283;55.426;37.756;2022-12-18T04:49:19;98674.69;;;-5.53;87.31
42671;BME280;28283;55.426;37.756;2022-12-18T04:54:20;98729.25;;;-5.36;87.73
42671;BME280;28283;55.426;37.756;2022-12-18T04:59:21;98739.38;;;-5.31;87.09
42671;BME280;28283;55.426;37.756;2022-12-18T05:04:21;98709.66;;;-5.54;86.98
42671;BME280;28283;55.426;37.756;2022-12-18T05:09:23;98735.91;;;-5.43;87.37
42671;BME280;28283;55.426;37.756;2022-12-18T05:14:24;98743.97;;;-5.46;87.49
42671;BME280;28283;55.426;37.756;2022-12-18T05:19:25;98734.09;;;-5.54;86.72
42671;BME280;28283;55.426;37.756;2022-12-18T05:24:25;98760.50;;;-5.46;86.63
42671;BME280;28283;55.426;37.756;2022-12-18T05:29:26;98772.19;;;-5.50;87.08
42671;BME280;28283;55.426;37.756;2022-12-18T05:34:26;98787.28;;;-5.53;87.05
42671;BME280;28283;55.426;37.756;2022-12-18T05:39:27;98764.22;;;-5.72;86.91
42671;BME280;28283;55.426;37.756;2022-12-18T05:44:28;98782.97;;;-5.54;87.27
42671;BME280;28283;55.426;37.756;2022-12-18T05:49:28;98805.72;;;-5.55;86.79
42671;BME280;28283;55.426;37.756;2022-12-18T05:54:29;98777.81;;;-5.67;86.99
42671;BME280;28283;55.426;37.756;2022-12-18T05:59:30;98814.28;;;-5.53;86.45
42671;BME280;28283;55.426;37.756;2022-12-18T06:04:31;98812.75;;;-5.56;86.34
42671;BME280;28283;55.426;37.756;2022-12-18T06:09:31;98816.09;;;-5.53;86.17
42671;BME280;28283;55.426;37.756;2022-12-18T06:14:32;98820.09;;;-5.61;86.23
42671;BME280;28283;55.426;37.756;2022-12-18T06:19:33;98845.00;;;-5.55;86.04
42671;BME280;28283;55.426;37.756;2022-12-18T06:24:34;98853.63;;;-5.66;85.85
42671;BME280;28283;55.426;37.756;2022-12-18T06:29:34;98870.19;;;-5.41;85.11
42671;BME280;28283;55.426;37.756;2022-12-18T06:34:37;98875.69;;;-5.57;85.38
42671;BME280;28283;55.426;37.756;2022-12-18T06:39:38;98877.91;;;-5.64;84.86
42671;BME280;28283;55.426;37.756;2022-12-18T06:44:38;98879.09;;;-5.68;84.42
42671;BME280;28283;55.426;37.756;2022-12-18T06:49:39;98910.97;;;-5.50;84.81
42671;BME280;28283;55.426;37.756;2022-12-18T06:54:40;98934.84;;;-5.42;84.77
42671;BME280;28283;55.426;37.756;2022-12-18T06:59:40;98929.88;;;-5.33;84.74
42671;BME280;28283;55.426;37.756;2022-12-18T07:04:41;98935.06;;;-5.45;84.87
42671;BME280;28283;55.426;37.756;2022-12-18T07:09:42;98952.63;;;-5.34;84.10
42671;BME280;28283;55.426;37.756;2022-12-18T07:14:43;98970.84;;;-5.32;84.06
42671;BME280;28283;55.426;37.756;2022-12-18T07:19:44;98975.38;;;-5.34;84.10
42671;BME280;28283;55.426;37.756;2022-12-18T07:24:44;98975.25;;;-5.33;83.92
42671;BME280;28283;55.426;37.756;2022-12-18T07:29:45;98986.69;;;-5.34;83.29
42671;BME280;28283;55.426;37.756;2022-12-18T07:34:46;98970.16;;;-5.47;84.43
42671;BME280;28283;55.426;37.756;2022-12-18T07:39:46;98978.00;;;-5.34;83.62
42671;BME280;28283;55.426;37.756;2022-12-18T07:44:47;98983.75;;;-5.42;83.60
42671;BME280;28283;55.426;37.756;2022-12-18T07:49:48;99011.72;;;-5.30;83.45
42671;BME280;28283;55.426;37.756;2022-12-18T07:54:49;99019.88;;;-5.22;83.84
42671;BME280;28283;55.426;37.756;2022-12-18T07:59:50;99004.81;;;-5.31;82.93
42671;BME280;28283;55.426;37.756;2022-12-18T08:04:51;99018.91;;;-5.21;82.39
42671;BME280;28283;55.426;37.756;2022-12-18T08:09:51;99064.34;;;-4.96;81.10
42671;BME280;28283;55.426;37.756;2022-12-18T08:14:52;99056.03;;;-5.27;81.98
42671;BME280;28283;55.426;37.756;2022-12-18T08:19:53;99049.53;;;-5.21;82.51
42671;BME280;28283;55.426;37.756;2022-12-18T08:24:54;99049.34;;;-5.31;81.87
42671;BME280;28283;55.426;37.756;2022-12-18T08:29:56;99065.16;;;-5.20;81.65
42671;BME280;28283;55.426;37.756;2022-12-18T08:34:57;99017.28;;;-5.47;81.59
42671;BME280;28283;55.426;37.756;2022-12-18T08:39:58;99081.38;;;-5.14;81.71
42671;BME280;28283;55.426;37.756;2022-12-18T08:44:59;99087.44;;;-5.14;81.51
42671;BME280;28283;55.426;37.756;2022-12-18T08:49:59;99097.22;;;-5.16;81.33
42671;BME280;28283;55.426;37.756;2022-12-18T08:55:00;99096.75;;;-5.10;81.57
42671;BME280;28283;55.426;37.756;2022-12-18T09:00:00;99114.78;;;-4.92;80.73
42671;BME280;28283;55.426;37.756;2022-12-18T09:05:01;99130.22;;;-5.01;81.09
42671;BME280;28283;55.426;37.756;2022-12-18T09:10:01;99135.84;;;-4.94;79.34
42671;BME280;28283;55.426;37.756;2022-12-18T09:15:03;99147.59;;;-5.00;80.50
42671;BME280;28283;55.426;37.756;2022-12-18T09:20:05;99148.78;;;-5.04;80.33
42671;BME280;28283;55.426;37.756;2022-12-18T09:25:06;99147.53;;;-5.11;80.04
42671;BME280;28283;55.426;37.756;2022-12-18T09:30:08;99168.06;;;-5.05;80.25
42671;BME280;28283;55.426;37.756;2022-12-18T09:35:09;99162.28;;;-5.10;80.36
42671;BME280;28283;55.426;37.756;2022-12-18T09:40:15;99163.13;;;-4.96;80.64
42671;BME280;28283;55.426;37.756;2022-12-18T09:45:17;99158.00;;;-4.98;79.11
42671;BME280;28283;55.426;37.756;2022-12-18T09:50:35;99179.78;;;-4.97;80.01
42671;BME280;28283;55.426;37.756;2022-12-18T09:55:40;99127.63;;;-5.39;80.46
42671;BME280;28283;55.426;37.756;2022-12-18T10:00:42;99188.00;;;-5.02;80.51
42671;BME280;28283;55.426;37.756;2022-12-18T10:06:04;99195.41;;;-4.96;80.72
42671;BME280;28283;55.426;37.756;2022-12-18T10:27:38;99214.19;;;-4.89;81.22
42671;BME280;28283;55.426;37.756;2022-12-18T10:32:39;99197.50;;;-4.88;81.23
42671;BME280;28283;55.426;37.756;2022-12-18T10:37:40;99225.78;;;-4.55;80.93
42671;BME280;28283;55.426;37.756;2022-12-18T10:43:12;99224.47;;;-4.86;80.98
42671;BME280;28283;55.426;37.756;2022-12-18T10:48:20;99241.22;;;-4.76;81.58
42671;BME280;28283;55.426;37.756;2022-12-18T10:53:27;99260.03;;;-4.82;81.79
42671;BME280;28283;55.426;37.756;2022-12-18T10:58:31;99279.31;;;-4.83;82.47
42671;BME280;28283;55.426;37.756;2022-12-18T11:03:44;99293.56;;;-4.74;82.84
42671;BME280;28283;55.426;37.756;2022-12-18T11:09:00;99268.50;;;-4.91;83.05
42671;BME280;28283;55.426;37.756;2022-12-18T11:14:19;99272.59;;;-4.87;83.01
42671;BME280;28283;55.426;37.756;2022-12-18T11:19:32;99281.59;;;-4.66;82.86
42671;BME280;28283;55.426;37.756;2022-12-18T11:24:33;99267.97;;;-4.84;82.98
42671;BME280;28283;55.426;37.756;2022-12-18T11:29:36;99301.44;;;-4.74;83.55
42671;BME280;28283;55.426;37.756;2022-12-18T11:34:37;99307.41;;;-4.85;83.62
42671;BME280;28283;55.426;37.756;2022-12-18T11:39:44;99312.56;;;-4.84;83.99
42671;BME280;28283;55.426;37.756;2022-12-18T11:45:53;99273.34;;;-4.98;83.34
42671;BME280;28283;55.426;37.756;2022-12-18T11:50:53;99324.94;;;-4.99;83.80
42671;BME280;28283;55.426;37.756;2022-12-18T12:06:44;99352.16;;;-5.01;84.79
42671;BME280;28283;55.426;37.756;2022-12-18T12:17:27;99371.16;;;-4.97;84.35
42671;BME280;28283;55.426;37.756;2022-12-18T12:22:41;99386.50;;;-4.91;84.15
42671;BME280;28283;55.426;37.756;2022-12-18T12:27:53;99390.13;;;-5.07;84.89
42671;BME280;28283;55.426;37.756;2022-12-18T12:38:28;99415.25;;;-4.77;84.16
42671;BME280;28283;55.426;37.756;2022-12-18T12:43:44;99408.28;;;-5.04;84.46
42671;BME280;28283;55.426;37.756;2022-12-18T12:48:51;99437.25;;;-4.80;84.53
42671;BME280;28283;55.426;37.756;2022-12-18T12:53:54;99429.75;;;-5.11;85.25
42671;BME280;28283;55.426;37.756;2022-12-18T12:59:12;99444.06;;;-5.17;85.81
42671;BME280;28283;55.426;37.756;2022-12-18T13:09:33;99456.44;;;-5.19;86.08
42671;BME280;28283;55.426;37.756;2022-12-18T13:14:36;99481.72;;;-4.91;86.32
42671;BME280;28283;55.426;37.756;2022-12-18T13:19:37;99485.91;;;-4.88;85.14
42671;BME280;28283;55.426;37.756;2022-12-18T13:24:38;99489.91;;;-5.10;86.19
42671;BME280;28283;55.426;37.756;2022-12-18T13:29:44;99487.72;;;-5.30;86.55
42671;BME280;28283;55.426;37.756;2022-12-18T13:34:45;99494.03;;;-5.06;86.54
42671;BME280;28283;55.426;37.756;2022-12-18T13:39:49;99527.06;;;-5.03;86.17
42671;BME280;28283;55.426;37.756;2022-12-18T13:44:53;99545.75;;;-5.22;87.03
42671;BME280;28283;55.426;37.756;2022-12-18T13:49:54;99549.09;;;-5.20;87.73
42671;BME280;28283;55.426;37.756;2022-12-18T13:54:57;99509.53;;;-5.44;88.03
42671;BME280;28283;55.426;37.756;2022-12-18T14:05:29;99585.75;;;-4.91;87.42
42671;BME280;28283;55.426;37.756;2022-12-18T14:10:32;99559.78;;;-5.38;88.29
42671;BME280;28283;55.426;37.756;2022-12-18T14:15:36;99579.97;;;-5.11;87.92
42671;BME280;28283;55.426;37.756;2022-12-18T14:20:43;99605.44;;;-4.99;88.37
42671;BME280;28283;55.426;37.756;2022-12-18T14:25:46;99599.53;;;-5.16;89.60
42671;BME280;28283;55.426;37.756;2022-12-18T14:30:48;99610.28;;;-5.07;89.75
42671;BME280;28283;55.426;37.756;2022-12-18T14:41:10;99643.06;;;-5.00;89.74
42671;BME280;28283;55.426;37.756;2022-12-18T14:51:29;99652.38;;;-4.81;88.43
42671;BME280;28283;55.426;37.756;2022-12-18T14:56:33;99639.69;;;-5.16;88.88
42671;BME280;28283;55.426;37.756;2022-12-18T15:01:48;99665.41;;;-4.80;89.19
42671;BME280;28283;55.426;37.756;2022-12-18T15:12:24;99689.09;;;-4.67;88.42
42671;BME280;28283;55.426;37.756;2022-12-18T15:17:26;99648.22;;;-5.12;89.12
42671;BME280;28283;55.426;37.756;2022-12-18T15:22:33;99700.25;;;-4.77;88.90
42671;BME280;28283;55.426;37.756;2022-12-18T15:27:36;99705.03;;;-4.55;87.36
42671;BME280;28283;55.426;37.756;2022-12-18T15:32:41;99707.81;;;-4.44;84.66
42671;BME280;28283;55.426;37.756;2022-12-18T15:37:42;99720.00;;;-4.57;83.18
42671;BME280;28283;55.426;37.756;2022-12-18T15:42:43;99719.06;;;-4.71;82.67
42671;BME280;28283;55.426;37.756;2022-12-18T15:48:22;99718.81;;;-4.81;81.96
42671;BME280;28283;55.426;37.756;2022-12-18T15:53:24;99744.44;;;-5.14;83.40
42671;BME280;28283;55.426;37.756;2022-12-18T15:58:27;99727.41;;;-4.93;84.34
42671;BME280;28283;55.426;37.756;2022-12-18T16:03:27;99749.22;;;-4.92;82.54
42671;BME280;28283;55.426;37.756;2022-12-18T16:08:29;99767.78;;;-4.81;81.46
42671;BME280;28283;55.426;37.756;2022-12-18T16:13:30;99777.91;;;-4.89;80.13
42671;BME280;28283;55.426;37.756;2022-12-18T16:18:30;99781.91;;;-4.98;81.48
42671;BME280;28283;55.426;37.756;2022-12-18T16:23:31;99776.56;;;-4.96;80.48
42671;BME280;28283;55.426;37.756;2022-12-18T16:28:32;99805.34;;;-4.95;80.53
42671;BME280;28283;55.426;37.756;2022-12-18T16:33:32;99832.44;;;-5.10;80.46
42671;BME280;28283;55.426;37.756;2022-12-18T16:38:33;99838.88;;;-5.16;79.66
42671;BME280;28283;55.426;37.756;2022-12-18T16:43:34;99841.03;;;-5.08;79.94
42671;BME280;28283;55.426;37.756;2022-12-18T16:48:35;99840.28;;;-5.10;79.31
42671;BME280;28283;55.426;37.756;2022-12-18T16:53:36;99863.59;;;-5.20;79.63
42671;BME280;28283;55.426;37.756;2022-12-18T16:58:36;99835.38;;;-5.31;78.66
42671;BME280;28283;55.426;37.756;2022-12-18T17:03:37;99830.34;;;-5.82;79.50
42671;BME280;28283;55.426;37.756;2022-12-18T17:08:37;99860.06;;;-5.51;79.30
42671;BME280;28283;55.426;37.756;2022-12-18T17:13:38;99874.13;;;-5.68;79.51
42671;BME280;28283;55.426;37.756;2022-12-18T17:18:39;99867.16;;;-5.53;78.80
42671;BME280;28283;55.426;37.756;2022-12-18T17:23:41;99894.31;;;-5.38;78.73
42671;BME280;28283;55.426;37.756;2022-12-18T17:28:42;99882.41;;;-5.76;79.26
42671;BME280;28283;55.426;37.756;2022-12-18T17:33:43;99892.59;;;-5.71;78.98
42671;BME280;28283;55.426;37.756;2022-12-18T17:38:54;99915.59;;;-5.92;79.09
42671;BME280;28283;55.426;37.756;2022-12-18T17:43:58;99897.78;;;-6.35;78.92
42671;BME280;28283;55.426;37.756;2022-12-18T17:49:00;99904.22;;;-6.58;78.83
42671;BME280;28283;55.426;37.756;2022-12-18T17:54:01;99942.34;;;-6.54;78.73
42671;BME280;28283;55.426;37.756;2022-12-18T17:59:02;99975.72;;;-6.41;77.54
42671;BME280;28283;55.426;37.756;2022-12-18T18:04:03;99947.44;;;-6.85;78.81
42671;BME280;28283;55.426;37.756;2022-12-18T18:09:04;99980.03;;;-6.75;78.46
42671;BME280;28283;55.426;37.756;2022-12-18T18:14:10;99987.34;;;-6.82;77.21
42671;BME280;28283;55.426;37.756;2022-12-18T18:19:17;99978.56;;;-7.17;77.11
42671;BME280;28283;55.426;37.756;2022-12-18T18:24:20;100012.38;;;-7.14;77.83
42671;BME280;28283;55.426;37.756;2022-12-18T18:29:24;99995.53;;;-7.26;77.62
42671;BME280;28283;55.426;37.756;2022-12-18T18:34:27;100027.50;;;-7.40;77.65
42671;BME280;28283;55.426;37.756;2022-12-18T18:39:28;100026.88;;;-7.45;77.45
42671;BME280;28283;55.426;37.756;2022-12-18T18:44:29;100032.88;;;-7.62;78.47
42671;BME280;28283;55.426;37.756;2022-12-18T18:49:30;100030.91;;;-7.77;77.87
42671;BME280;28283;55.426;37.756;2022-12-18T18:54:31;100052.31;;;-7.69;78.87
42671;BME280;28283;55.426;37.756;2022-12-18T18:59:32;100056.84;;;-7.93;nan
42671;BME280;28283;55.426;37.756;2022-12-18T19:04:33;100078.72;;;-7.96;79.22
42671;BME280;28283;55.426;37.756;2022-12-18T19:09:34;100097.69;;;-7.92;78.54
42671;BME280;28283;55.426;37.756;2022-12-18T19:14:35;100066.56;;;-8.38;79.24
42671;BME280;28283;55.426;37.756;2022-12-18T19:19:36;100127.28;;;-8.14;77.74
42671;BME280;28283;55.426;37.756;2022-12-18T19:24:37;100121.97;;;-8.33;77.78
42671;BME280;28283;55.426;37.756;2022-12-18T19:29:37;100143.94;;;-8.38;77.89
42671;BME280;28283;55.426;37.756;2022-12-18T19:34:38;100158.03;;;-8.42;77.28
42671;BME280;28283;55.426;37.756;2022-12-18T19:39:39;100149.66;;;-8.73;77.75
42671;BME280;28283;55.426;37.756;2022-12-18T19:44:40;100170.75;;;-8.79;77.63
42671;BME280;28283;55.426;37.756;2022-12-18T19:49:41;100191.19;;;-8.92;78.29
42671;BME280;28283;55.426;37.756;2022-12-18T19:54:44;100164.63;;;-9.25;78.36
42671;BME280;28283;55.426;37.756;2022-12-18T19:59:46;100199.31;;;-9.25;78.52
42671;BME280;28283;55.426;37.756;2022-12-18T20:04:47;100205.81;;;-9.11;77.71
42671;BME280;28283;55.426;37.756;2022-12-18T20:09:48;100196.72;;;-9.25;78.19
42671;BME280;28283;55.426;37.756;2022-12-18T20:14:50;100196.81;;;-9.53;78.58
42671;BME280;28283;55.426;37.756;2022-12-18T20:19:50;100192.69;;;-9.58;77.81
42671;BME280;28283;55.426;37.756;2022-12-18T20:24:51;100222.81;;;-9.51;77.87
42671;BME280;28283;55.426;37.756;2022-12-18T20:29:52;100229.34;;;-9.65;77.48
42671;BME280;28283;55.426;37.756;2022-12-18T20:34:52;100232.09;;;-9.69;78.55
42671;BME280;28283;55.426;37.756;2022-12-18T20:39:53;100217.69;;;-9.80;78.36
42671;BME280;28283;55.426;37.756;2022-12-18T20:44:54;100228.94;;;-9.79;77.72
42671;BME280;28283;55.426;37.756;2022-12-18T20:49:54;100227.75;;;-9.95;78.54
42671;BME280;28283;55.426;37.756;2022-12-18T20:54:56;100231.22;;;-10.23;79.49
42671;BME280;28283;55.426;37.756;2022-12-18T20:59:57;100207.25;;;-10.31;79.74
42671;BME280;28283;55.426;37.756;2022-12-18T21:04:58;100259.34;;;-10.08;79.63
42671;BME280;28283;55.426;37.756;2022-12-18T21:09:59;100274.91;;;-10.06;79.51
42671;BME280;28283;55.426;37.756;2022-12-18T21:15:00;100255.25;;;-10.15;78.87
42671;BME280;28283;55.426;37.756;2022-12-18T21:20:01;100262.72;;;-10.32;78.85
42671;BME280;28283;55.426;37.756;2022-12-18T21:25:03;100249.94;;;-10.39;78.92
42671;BME280;28283;55.426;37.756;2022-12-18T21:30:04;100271.94;;;-10.22;78.47
42671;BME280;28283;55.426;37.756;2022-12-18T21:35:05;100291.13;;;-10.26;78.30
42671;BME280;28283;55.426;37.756;2022-12-18T21:40:06;100296.72;;;-10.39;78.28
42671;BME280;28283;55.426;37.756;2022-12-18T21:45:07;100295.19;;;-10.46;78.29
42671;BME280;28283;55.426;37.756;2022-12-18T21:50:08;100305.97;;;-10.60;78.77
42671;BME280;28283;55.426;37.756;2022-12-18T21:55:09;100293.91;;;-10.62;nan
42671;BME280;28283;55.426;37.756;2022-12-18T22:00:11;100299.88;;;-10.59;79.11
42671;BME280;28283;55.426;37.756;2022-12-18T22:05:12;100313.22;;;-10.71;79.47
42671;BME280;28283;55.426;37.756;2022-12-18T22:10:13;100309.97;;;-10.79;79.82
42671;BME280;28283;55.426;37.756;2022-12-18T22:15:14;100323.69;;;-10.74;79.42
42671;BME280;28283;55.426;37.756;2022-12-18T22:20:14;100323.97;;;-10.83;78.64
42671;BME280;28283;55.426;37.756;2022-12-18T22:25:15;100330.25;;;-10.92;78.93
42671;BME280;28283;55.426;37.756;2022-12-18T22:30:16;100332.88;;;-10.93;79.45
42671;BME280;28283;55.426;37.756;2022-12-18T22:35:16;100335.56;;;-10.97;78.86
42671;BME280;28283;55.426;37.756;2022-12-18T22:40:19;100320.22;;;-11.06;79.33
42671;BME280;28283;55.426;37.756;2022-12-18T22:45:20;100333.09;;;-11.01;79.63
42671;BME280;28283;55.426;37.756;2022-12-18T22:50:21;100347.28;;;-11.15;80.71
42671;BME280;28283;55.426;37.756;2022-12-18T22:55:21;100310.53;;;-11.32;79.47
42671;BME280;28283;55.426;37.756;2022-12-18T23:00:22;100353.50;;;-11.22;80.29
42671;BME280;28283;55.426;37.756;2022-12-18T23:05:23;100362.88;;;-11.16;79.86
42671;BME280;28283;55.426;37.756;2022-12-18T23:10:23;100342.50;;;-11.30;80.58
42671;BME280;28283;55.426;37.756;2022-12-18T23:15:24;100357.13;;;-11.27;80.84
42671;BME280;28283;55.426;37.756;2022-12-18T23:20:26;100363.09;;;-11.24;79.87
42671;BME280;28283;55.426;37.756;2022-12-18T23:25:27;100359.69;;;-11.26;80.02
42671;BME280;28283;55.426;37.756;2022-12-18T23:30:27;100389.25;;;-11.33;81.08
42671;BME280;28283;55.426;37.756;2022-12-18T23:35:28;100365.19;;;-11.40;80.19
42671;BME280;28283;55.426;37.756;2022-12-18T23:40:29;100387.34;;;-11.25;80.53
42671;BME280;28283;55.426;37.756;2022-12-18T23:45:30;100398.41;;;-11.18;81.51
42671;BME280;28283;55.426;37.756;2022-12-18T23:50:36;100388.91;;;-11.18;81.82
42671;BME280;28283;55.426;37.756;2022-12-18T23:55:41;100416.72;;;-11.23;82.14
